createdAt,value
2023-02-26T00:02:36.678Z,69.30
2023-02-26T00:07:40.178Z,69.04
2023-02-26T00:12:44.128Z,68.50
2023-02-26T00:17:54.297Z,68.29
2023-02-26T00:22:58.239Z,67.78
2023-02-26T00:28:01.642Z,67.66
2023-02-26T00:33:06.793Z,67.39
2023-02-26T00:38:14.582Z,67.72
2023-02-26T00:43:19.306Z,67.75
2023-02-26T00:48:34.383Z,67.47
2023-02-26T00:53:45.405Z,67.00
2023-02-26T00:58:48.200Z,67.04
2023-02-26T01:03:53.080Z,66.86
2023-02-26T01:09:05.233Z,66.67
2023-02-26T01:14:08.889Z,66.21
2023-02-26T01:19:21.504Z,65.47
2023-02-26T01:24:26.804Z,64.94
2023-02-26T01:29:29.962Z,64.37
2023-02-26T01:34:39.083Z,64.44
2023-02-26T01:39:48.078Z,64.29
2023-02-26T01:45:00.511Z,63.34
2023-02-26T01:50:13.995Z,63.07
2023-02-26T01:55:20.343Z,62.84
2023-02-26T02:00:23.538Z,63.29
2023-02-26T02:05:34.088Z,63.19
2023-02-26T02:10:36.902Z,63.54
2023-02-26T02:15:46.724Z,63.52
2023-02-26T02:21:18.628Z,63.36
2023-02-26T02:26:43.566Z,63.41
2023-02-26T02:31:55.213Z,63.52
2023-02-26T02:37:05.117Z,63.53
2023-02-26T02:42:17.625Z,63.06
2023-02-26T02:47:25.175Z,63.50
2023-02-26T02:52:34.696Z,63.07
2023-02-26T02:57:41.923Z,62.94
2023-02-26T03:02:52.049Z,63.04
2023-02-26T03:07:58.246Z,62.88
2023-02-26T03:13:01.122Z,63.15
2023-02-26T03:18:14.172Z,63.11
2023-02-26T03:23:23.312Z,63.20
2023-02-26T03:28:37.386Z,63.48
2023-02-26T03:33:51.462Z,63.82
2023-02-26T03:38:58.434Z,64.01
2023-02-26T03:44:08.652Z,64.43
2023-02-26T03:49:19.668Z,64.40
2023-02-26T03:54:27.790Z,64.50
2023-02-26T03:59:47.360Z,64.84
2023-02-26T04:05:13.431Z,64.75
2023-02-26T04:10:20.314Z,64.77
2023-02-26T04:15:23.202Z,64.98
2023-02-26T04:20:27.560Z,64.68
2023-02-26T04:25:30.824Z,64.84
2023-02-26T04:30:35.221Z,64.98
2023-02-26T04:35:41.201Z,65.16
2023-02-26T04:40:45.835Z,65.38
2023-02-26T04:45:50.941Z,65.11
2023-02-26T04:50:55.304Z,65.11
2023-02-26T04:55:58.315Z,64.86
2023-02-26T05:01:01.423Z,64.92
2023-02-26T05:06:05.943Z,65.13
2023-02-26T05:11:08.840Z,65.49
2023-02-26T05:16:12.099Z,65.43
2023-02-26T05:21:16.448Z,65.64
2023-02-26T05:26:19.343Z,65.42
2023-02-26T05:31:22.308Z,65.73
2023-02-26T05:36:27.035Z,65.53
2023-02-26T05:41:29.934Z,65.60
2023-02-26T05:46:32.802Z,65.57
2023-02-26T05:51:37.010Z,65.78
2023-02-26T05:56:39.977Z,66.01
2023-02-26T06:01:43.457Z,66.20
2023-02-26T06:06:47.729Z,66.16
2023-02-26T06:11:50.624Z,66.59
2023-02-26T06:16:53.578Z,66.66
2023-02-26T06:21:57.762Z,66.35
2023-02-26T06:27:00.538Z,66.77
2023-02-26T06:32:03.419Z,66.58
2023-02-26T06:37:07.802Z,66.52
2023-02-26T06:42:10.873Z,66.45
2023-02-26T06:47:13.851Z,66.73
2023-02-26T06:52:18.190Z,66.24
2023-02-26T06:57:21.165Z,66.50
2023-02-26T07:02:24.436Z,65.39
2023-02-26T07:07:29.447Z,63.46
2023-02-26T07:12:32.272Z,62.28
2023-02-26T07:17:35.093Z,60.72
2023-02-26T07:22:39.364Z,60.37
2023-02-26T07:27:43.813Z,61.46
2023-02-26T07:32:46.851Z,59.85
2023-02-26T07:37:52.192Z,58.11
2023-02-26T07:42:55.030Z,55.14
2023-02-26T07:47:57.935Z,55.38
2023-02-26T07:53:02.151Z,52.93
2023-02-26T08:03:42.666Z,53.00
2023-02-26T08:08:46.954Z,52.05
2023-02-26T08:13:49.774Z,51.92
2023-02-26T08:18:52.539Z,51.56
2023-02-26T08:23:56.802Z,50.96
2023-02-26T08:28:59.704Z,50.71
2023-02-26T08:34:02.566Z,49.77
2023-02-26T08:39:07.724Z,48.62
2023-02-26T08:44:10.460Z,48.66
2023-02-26T08:49:13.203Z,48.65
2023-02-26T08:54:17.569Z,47.80
2023-02-26T08:59:20.529Z,47.11
2023-02-26T09:04:23.488Z,46.86
2023-02-26T09:09:27.834Z,45.68
2023-02-26T09:14:30.631Z,45.51
2023-02-26T09:19:33.500Z,44.78
2023-02-26T09:24:37.660Z,43.76
2023-02-26T09:29:40.498Z,42.95
2023-02-26T09:34:43.344Z,43.36
2023-02-26T09:39:47.545Z,41.79
2023-02-26T09:44:53.716Z,42.14
2023-02-26T09:50:05.970Z,41.57
2023-02-26T09:55:18.817Z,40.42
2023-02-26T10:00:30.280Z,40.05
2023-02-26T10:05:41.001Z,38.50
2023-02-26T10:10:51.731Z,40.05
2023-02-26T10:16:01.520Z,37.70
2023-02-26T10:21:12.566Z,38.07
2023-02-26T10:26:21.191Z,36.81
2023-02-26T10:31:31.437Z,37.74
2023-02-26T10:36:45.725Z,36.39
2023-02-26T10:41:52.497Z,36.02
2023-02-26T10:47:04.047Z,34.75
2023-02-26T10:52:14.884Z,36.37
2023-02-26T10:57:24.285Z,36.44
2023-02-26T11:02:36.238Z,34.27
2023-02-26T11:07:41.249Z,31.52
2023-02-26T11:12:45.924Z,30.03
2023-02-26T11:17:50.253Z,30.41
2023-02-26T11:22:56.551Z,29.39
2023-02-26T11:28:03.581Z,28.95
2023-02-26T11:33:17.538Z,29.84
2023-02-26T11:38:26.943Z,28.42
2023-02-26T11:43:39.204Z,30.74
2023-02-26T11:48:45.170Z,33.51
2023-02-26T11:53:52.367Z,36.44
2023-02-26T11:58:56.951Z,32.17
2023-02-26T12:04:02.144Z,29.49
2023-02-26T12:09:05.977Z,27.89
2023-02-26T12:14:23.021Z,27.88
2023-02-26T12:19:35.415Z,29.83
2023-02-26T12:24:54.311Z,28.78
2023-02-26T12:30:11.933Z,31.74
2023-02-26T12:35:47.321Z,34.79
2023-02-26T12:41:07.560Z,33.16
2023-02-26T12:46:24.214Z,33.73
2023-02-26T12:51:39.558Z,31.07
2023-02-26T12:56:55.921Z,30.62
2023-02-26T13:02:33.658Z,30.12
2023-02-26T13:07:51.352Z,28.25
2023-02-26T13:13:03.311Z,28.27
2023-02-26T13:18:12.910Z,27.28
2023-02-26T13:23:21.507Z,31.64
2023-02-26T13:28:35.130Z,34.28
2023-02-26T13:33:40.937Z,30.59
2023-02-26T13:38:54.936Z,30.05
2023-02-26T13:44:18.847Z,29.30
2023-02-26T13:49:27.979Z,29.85
2023-02-26T13:54:44.187Z,33.02
2023-02-26T13:59:54.304Z,35.76
2023-02-26T14:05:01.174Z,36.41
2023-02-26T14:10:16.650Z,33.04
2023-02-26T14:15:28.939Z,31.61
2023-02-26T14:20:35.464Z,31.37
2023-02-26T14:25:40.343Z,30.82
2023-02-26T14:30:49.306Z,30.37
2023-02-26T14:35:55.534Z,30.88
2023-02-26T14:41:09.955Z,30.86
2023-02-26T14:46:13.862Z,30.61
2023-02-26T14:51:28.329Z,32.15
2023-02-26T14:56:45.688Z,33.82
2023-02-26T15:01:53.089Z,31.96
2023-02-26T15:07:09.535Z,30.70
2023-02-26T15:12:29.379Z,30.72
2023-02-26T15:17:46.957Z,31.55
2023-02-26T15:23:09.241Z,31.09
2023-02-26T15:28:16.522Z,30.35
2023-02-26T15:33:20.870Z,31.96
2023-02-26T15:38:25.058Z,34.56
2023-02-26T15:43:30.041Z,34.79
2023-02-26T15:48:38.282Z,36.18
2023-02-26T15:53:45.547Z,38.14
2023-02-26T15:58:54.845Z,39.50
2023-02-26T16:03:59.706Z,40.62
2023-02-26T16:09:06.523Z,41.63
2023-02-26T16:14:18.066Z,41.96
2023-02-26T16:19:26.764Z,42.46
2023-02-26T16:24:32.108Z,42.68
2023-02-26T16:29:37.108Z,42.90
2023-02-26T16:34:43.208Z,43.32
2023-02-26T16:39:47.418Z,43.68
2023-02-26T16:44:53.325Z,44.12
2023-02-26T16:49:56.188Z,44.61
2023-02-26T16:55:05.742Z,45.17
2023-02-26T17:00:17.738Z,45.44
2023-02-26T17:05:25.848Z,45.57
2023-02-26T17:10:34.618Z,45.61
2023-02-26T17:15:40.756Z,46.04
2023-02-26T17:20:44.677Z,46.31
2023-02-26T17:25:54.088Z,46.23
2023-02-26T17:30:58.448Z,46.61
2023-02-26T17:36:04.060Z,47.00
2023-02-26T17:41:08.215Z,47.19
2023-02-26T17:46:12.702Z,47.56
2023-02-26T17:51:16.843Z,48.02
2023-02-26T17:56:27.067Z,48.09
2023-02-26T18:01:30.565Z,48.43
2023-02-26T18:06:36.156Z,48.21
2023-02-26T18:11:41.892Z,48.37
2023-02-26T18:16:46.733Z,48.36
2023-02-26T18:21:50.674Z,48.32
2023-02-26T18:26:54.908Z,48.61
2023-02-26T18:32:00.434Z,49.09
2023-02-26T18:37:04.394Z,48.98
2023-02-26T18:42:15.068Z,49.36
2023-02-26T18:47:19.028Z,49.63
2023-02-26T18:52:21.885Z,49.99
2023-02-26T18:57:26.094Z,49.99
2023-02-26T19:02:29.120Z,50.25
2023-02-26T19:07:32.002Z,50.42
2023-02-26T19:12:36.238Z,50.48
2023-02-26T19:17:39.538Z,50.80
2023-02-26T19:22:43.578Z,51.06
2023-02-26T19:27:47.683Z,51.40
2023-02-26T19:32:50.719Z,51.69
2023-02-26T19:37:54.848Z,52.05
2023-02-26T19:42:59.035Z,52.14
2023-02-26T19:48:01.855Z,52.39
2023-02-26T19:53:04.964Z,52.76
2023-02-26T19:58:09.410Z,52.68
2023-02-26T20:03:12.253Z,53.01
2023-02-26T20:08:15.109Z,53.15
2023-02-26T20:13:19.666Z,53.14
2023-02-26T20:18:22.467Z,53.32
2023-02-26T20:23:26.071Z,53.43
2023-02-26T20:28:30.290Z,53.97
2023-02-26T20:33:33.414Z,54.43
2023-02-26T20:38:37.033Z,54.15
2023-02-26T20:43:41.343Z,54.64
2023-02-26T20:48:44.799Z,54.61
2023-02-26T20:53:47.697Z,55.18
2023-02-26T20:58:51.964Z,55.45
2023-02-26T21:03:54.841Z,55.61
2023-02-26T21:08:57.725Z,55.87
2023-02-26T21:14:03.135Z,56.18
2023-02-26T21:19:06.008Z,55.97
2023-02-26T21:24:09.363Z,56.45
2023-02-26T21:29:13.461Z,56.40
2023-02-26T21:34:32.591Z,56.66
2023-02-26T21:39:37.990Z,56.71
2023-02-26T21:44:42.722Z,56.86
2023-02-26T21:49:45.764Z,56.94
2023-02-26T21:54:48.523Z,57.44
2023-02-26T21:59:52.687Z,57.49
2023-02-26T22:04:55.490Z,57.70
2023-02-26T22:09:58.326Z,57.83
2023-02-26T22:15:02.500Z,57.76
2023-02-26T22:20:09.754Z,57.53
2023-02-26T22:25:13.777Z,57.62
2023-02-26T22:30:18.036Z,58.08
2023-02-26T22:35:21.045Z,58.09
2023-02-26T22:40:24.862Z,57.95
2023-02-26T22:45:29.485Z,58.18
2023-02-26T22:50:33.139Z,58.17
2023-02-26T22:55:35.902Z,58.81
2023-02-26T23:00:41.221Z,58.74
2023-02-26T23:05:43.915Z,59.22
2023-02-26T23:10:47.006Z,59.26
2023-02-26T23:15:51.207Z,59.52
2023-02-26T23:20:54.255Z,59.49
2023-02-26T23:25:57.129Z,59.47
2023-02-26T23:31:01.304Z,59.62
2023-02-26T23:36:04.040Z,59.93
2023-02-26T23:41:06.897Z,60.33
2023-02-26T23:46:11.907Z,60.41
2023-02-26T23:51:14.783Z,60.77
2023-02-26T23:56:17.549Z,60.75
